Time;durP1;ratioP1;P1;durP2;ratioP2;P2;SDS_P1;SDS_P2;PMS_P1;PMS_P2;Temp;Humidity;BMP_temperature;BMP_pressure;BME280_temperature;BME280_humidity;BME280_pressure;Samples;Min_cycle;Max_cycle;Signal;HPM_P1;HPM_P2
2023/04/20 00:02:23;;;;;;;52.38;48.28;;;7.10;1.00;;;;;;5006999;28;20432;-85
2023/04/20 00:04:49;;;;;;;53.40;48.67;;;7.00;1.00;;;;;;5008671;28;20513;-86
2023/04/20 00:07:15;;;;;;;52.92;49.17;;;6.90;1.00;;;;;;5009077;28;20041;-86
2023/04/20 00:09:41;;;;;;;57.85;53.83;;;6.70;1.00;;;;;;4992280;28;20045;-86
2023/04/20 00:12:06;;;;;;;47.60;44.17;;;6.60;1.00;;;;;;5008264;28;20493;-86
2023/04/20 00:14:32;;;;;;;54.25;50.25;;;6.40;1.00;;;;;;5008540;28;20042;-86
2023/04/20 00:16:57;;;;;;;55.92;51.70;;;6.40;1.00;;;;;;5007396;28;20133;-86
2023/04/20 00:19:24;;;;;;;48.47;44.95;;;6.30;1.00;;;;;;4992157;28;20045;-86
2023/04/20 00:21:51;;;;;;;71.13;66.35;;;6.30;1.00;;;;;;4991557;28;20042;-86
2023/04/20 00:24:17;;;;;;;54.15;50.30;;;6.20;48.10;;;;;;5008612;28;20513;-86
2023/04/20 00:26:43;;;;;;;45.83;42.55;;;6.20;99.90;;;;;;5008353;28;20072;-86
2023/04/20 00:29:08;;;;;;;50.78;46.97;;;6.20;99.90;;;;;;5008427;28;20042;-86
2023/04/20 00:31:34;;;;;;;49.92;45.83;;;6.10;99.90;;;;;;5006911;28;20630;-85
2023/04/20 00:33:59;;;;;;;48.30;44.75;;;6.00;99.90;;;;;;4984557;28;20054;-86
2023/04/20 00:36:25;;;;;;;48.53;44.88;;;6.00;99.90;;;;;;4988646;28;20108;-86
2023/04/20 00:38:51;;;;;;;64.60;60.13;;;6.10;99.90;;;;;;4996628;28;20413;-86
2023/04/20 00:41:17;;;;;;;51.63;47.10;;;6.10;1.00;;;;;;4991193;28;20056;-85
2023/04/20 00:43:52;;;;;;;52.58;48.83;;;6.10;1.00;;;;;;5006845;28;20045;-86
2023/04/20 00:46:19;;;;;;;49.75;46.08;;;6.20;13.70;;;;;;5005149;28;20045;-86
2023/04/20 00:48:46;;;;;;;47.63;44.28;;;6.20;99.90;;;;;;4995202;28;20128;-86
2023/04/20 00:51:12;;;;;;;42.80;38.88;;;6.10;99.90;;;;;;5007920;28;20065;-86
2023/04/20 00:53:38;;;;;;;38.22;34.88;;;6.20;99.90;;;;;;4991903;28;20038;-86
2023/04/20 00:56:05;;;;;;;47.95;44.33;;;6.10;99.90;;;;;;5007736;28;20069;-86
2023/04/20 00:58:30;;;;;;;37.97;34.92;;;6.10;99.90;;;;;;5009286;28;20034;-86
2023/04/20 01:00:56;;;;;;;49.65;45.83;;;6.20;1.00;;;;;;5010493;28;20049;-86
2023/04/20 01:03:22;;;;;;;61.50;56.50;;;6.30;1.00;;;;;;5009995;28;20037;-86
2023/04/20 01:05:48;;;;;;;47.63;43.55;;;6.50;60.60;;;;;;4975985;28;20524;-85
2023/04/20 01:08:13;;;;;;;58.20;52.15;;;6.60;99.90;;;;;;4993346;28;20522;-86
2023/04/20 01:10:39;;;;;;;55.03;49.85;;;6.80;99.90;;;;;;5011693;28;20405;-85
2023/04/20 01:13:04;;;;;;;46.88;42.85;;;7.00;99.90;;;;;;5000163;28;20569;-86
2023/04/20 01:15:30;;;;;;;35.75;32.50;;;7.00;99.90;;;;;;4994488;28;20452;-86
2023/04/20 01:17:56;;;;;;;43.95;39.88;;;7.10;99.90;;;;;;5010640;28;20365;-86
2023/04/20 01:20:23;;;;;;;44.15;40.42;;;7.10;99.90;;;;;;5011443;28;20046;-86
2023/04/20 01:22:50;;;;;;;36.70;33.75;;;7.20;99.90;;;;;;5010523;28;20042;-86
2023/04/20 01:25:17;;;;;;;33.97;31.38;;;7.20;1.00;;;;;;5011252;28;20038;-86
2023/04/20 01:27:43;;;;;;;54.55;49.72;;;7.30;1.00;;;;;;5011156;28;20410;-86
2023/04/20 01:30:09;;;;;;;51.47;46.90;;;7.60;1.00;;;;;;5011049;28;20042;-86
2023/04/20 01:32:35;;;;;;;51.47;47.28;;;7.40;99.90;;;;;;5009015;28;20041;-86
2023/04/20 01:35:02;;;;;;;62.83;54.80;;;7.40;99.90;;;;;;5010899;28;20520;-86
2023/04/20 01:37:28;;;;;;;46.03;42.40;;;7.60;99.90;;;;;;4994746;28;20068;-86
2023/04/20 01:39:53;;;;;;;48.13;44.38;;;7.50;99.90;;;;;;5011209;28;20045;-85
2023/04/20 01:42:19;;;;;;;53.33;49.20;;;7.50;99.90;;;;;;5001690;28;20050;-85
2023/04/20 01:44:45;;;;;;;60.03;54.47;;;7.50;99.90;;;;;;5002966;28;20085;-85
2023/04/20 01:47:10;;;;;;;44.05;40.08;;;7.50;99.90;;;;;;5000738;28;20114;-86
2023/04/20 01:49:36;;;;;;;46.00;42.33;;;7.50;99.90;;;;;;5001343;28;20104;-86
2023/04/20 01:52:01;;;;;;;58.20;53.00;;;7.50;99.90;;;;;;5010075;28;20037;-85
2023/04/20 01:54:27;;;;;;;61.15;55.35;;;7.50;99.90;;;;;;5010374;28;20049;-85
2023/04/20 01:56:52;;;;;;;54.20;49.35;;;7.70;99.90;;;;;;4993303;28;20446;-86
2023/04/20 01:59:18;;;;;;;60.10;54.50;;;7.70;99.90;;;;;;4998479;28;20088;-86
2023/04/20 02:01:44;;;;;;;46.15;42.50;;;7.70;99.90;;;;;;5008952;28;20414;-86
2023/04/20 02:04:09;;;;;;;38.17;34.83;;;7.80;99.90;;;;;;4993869;28;20417;-86
2023/04/20 02:06:35;;;;;;;50.22;46.15;;;7.70;99.90;;;;;;4994173;28;20080;-86
2023/04/20 02:09:00;;;;;;;55.67;50.17;;;7.70;99.90;;;;;;5010667;28;20360;-86
2023/04/20 02:11:26;;;;;;;38.72;35.40;;;7.70;99.90;;;;;;5009195;28;20232;-85
2023/04/20 02:13:51;;;;;;;54.95;50.33;;;7.70;99.90;;;;;;5010158;28;20037;-86
2023/04/20 02:16:18;;;;;;;46.95;42.78;;;7.70;99.90;;;;;;5008989;28;20049;-86
2023/04/20 02:18:44;;;;;;;37.83;34.30;;;7.60;1.00;;;;;;5010039;28;20450;-86
2023/04/20 02:21:10;;;;;;;61.42;55.22;;;7.70;5.20;;;;;;5010153;28;20041;-85
2023/04/20 02:23:36;;;;;;;34.80;31.75;;;7.70;99.90;;;;;;5009860;28;20053;-86
2023/04/20 02:26:02;;;;;;;55.47;49.35;;;7.80;99.90;;;;;;5010006;28;20034;-86
2023/04/20 02:28:27;;;;;;;47.47;42.60;;;7.80;1.00;;;;;;5010174;28;20041;-86
2023/04/20 02:30:53;;;;;;;46.60;40.38;;;7.80;99.90;;;;;;5009290;28;20108;-86
2023/04/20 02:33:20;;;;;;;44.30;40.05;;;7.90;99.90;;;;;;4992467;28;20076;-85
2023/04/20 02:35:46;;;;;;;47.95;43.25;;;7.90;99.90;;;;;;5009964;28;20184;-86
2023/04/20 02:38:12;;;;;;;57.72;41.10;;;7.80;1.00;;;;;;4993765;28;20145;-85
2023/04/20 02:40:37;;;;;;;48.90;44.05;;;7.90;3.80;;;;;;4993370;28;20041;-85
2023/04/20 02:43:03;;;;;;;66.68;53.38;;;7.90;99.90;;;;;;4996805;28;20521;-86
2023/04/20 02:45:29;;;;;;;56.72;50.72;;;7.90;99.90;;;;;;4973633;28;20565;-85
2023/04/20 02:47:56;;;;;;;38.55;34.60;;;7.90;99.90;;;;;;4987416;28;20049;-86
2023/04/20 02:50:21;;;;;;;41.25;34.88;;;7.90;1.00;;;;;;5009968;28;20050;-86
2023/04/20 02:52:47;;;;;;;36.63;32.78;;;8.00;99.90;;;;;;4992842;28;20048;-86
2023/04/20 02:55:14;;;;;;;47.58;42.97;;;7.90;99.90;;;;;;5009699;28;20129;-86
2023/04/20 02:57:39;;;;;;;58.28;47.72;;;8.00;1.00;;;;;;5009371;28;20205;-86
2023/04/20 03:00:07;;;;;;;64.53;57.47;;;8.00;99.90;;;;;;5009808;28;20034;-86
2023/04/20 03:02:33;;;;;;;46.45;41.30;;;8.10;99.90;;;;;;4989027;28;20045;-86
2023/04/20 03:04:59;;;;;;;98.82;73.63;;;8.10;1.00;;;;;;4993480;28;20397;-86
2023/04/20 03:07:25;;;;;;;64.72;55.88;;;9.60;70.10;;;;;;5009484;28;20080;-86
2023/04/20 03:09:50;;;;;;;55.92;49.90;;;8.60;99.90;;;;;;5009882;28;20128;-85
2023/04/20 03:12:17;;;;;;;81.03;64.43;;;8.30;99.90;;;;;;5005260;28;20113;-86
2023/04/20 03:14:42;;;;;;;98.57;64.97;;;8.40;99.90;;;;;;4993077;28;20057;-86
2023/04/20 03:17:08;;;;;;;50.92;45.70;;;8.30;99.90;;;;;;4991638;28;20502;-86
2023/04/20 03:19:35;;;;;;;76.50;66.18;;;8.40;99.90;;;;;;5009492;28;20485;-86
2023/04/20 03:22:01;;;;;;;84.95;70.60;;;8.40;99.90;;;;;;5007716;28;20046;-85
2023/04/20 03:24:26;;;;;;;64.57;46.55;;;8.50;99.90;;;;;;5005862;28;20045;-86
2023/04/20 03:26:52;;;;;;;59.97;53.58;;;10.00;99.90;;;;;;5008767;28;20056;-86
2023/04/20 03:29:17;;;;;;;87.95;68.15;;;8.50;36.50;;;;;;5009261;28;20545;-86
2023/04/20 03:31:43;;;;;;;72.28;64.47;;;8.50;1.00;;;;;;5007678;28;20038;-86
2023/04/20 03:34:09;;;;;;;40.25;35.70;;;8.60;99.90;;;;;;5008804;28;20037;-86
2023/04/20 03:36:35;;;;;;;57.35;51.60;;;8.60;99.90;;;;;;5009020;28;20049;-86
2023/04/20 03:39:00;;;;;;;70.30;63.50;;;8.60;1.00;;;;;;5008908;28;20133;-86
2023/04/20 03:41:26;;;;;;;61.97;55.75;;;8.60;99.90;;;;;;5009100;28;20129;-86
2023/04/20 03:43:51;;;;;;;48.92;44.22;;;7.20;99.90;;;;;;4992172;28;20053;-86
2023/04/20 03:46:17;;;;;;;78.63;70.10;;;8.60;1.00;;;;;;5007482;28;20100;-86
2023/04/20 03:48:43;;;;;;;50.35;45.35;;;8.60;1.00;;;;;;5008676;28;20077;-86
2023/04/20 03:51:08;;;;;;;58.75;52.47;;;8.50;99.90;;;;;;5008901;28;20053;-86
2023/04/20 03:53:34;;;;;;;63.50;58.08;;;8.50;99.90;;;;;;4992175;28;20498;-86
2023/04/20 03:56:00;;;;;;;53.17;48.80;;;8.50;15.80;;;;;;5008380;28;20050;-86
2023/04/20 03:58:25;;;;;;;51.42;46.47;;;8.50;1.00;;;;;;5009116;28;20402;-86
2023/04/20 04:00:51;;;;;;;67.65;53.35;;;8.50;1.00;;;;;;5008310;28;20037;-86
2023/04/20 04:03:16;;;;;;;72.03;64.05;;;8.40;99.90;;;;;;4990895;28;20046;-86
2023/04/20 04:05:42;;;;;;;64.05;57.40;;;8.50;99.90;;;;;;5006259;28;20085;-86
2023/04/20 04:08:08;;;;;;;69.35;63.38;;;8.50;99.90;;;;;;5008030;28;20517;-86
2023/04/20 04:10:33;;;;;;;63.03;57.33;;;8.50;99.90;;;;;;5008381;28;20046;-86
2023/04/20 04:12:59;;;;;;;66.18;59.10;;;8.50;3.40;;;;;;4992279;28;20517;-86
2023/04/20 04:15:24;;;;;;;59.05;52.88;;;8.50;1.00;;;;;;5007963;28;20060;-86
2023/04/20 04:17:52;;;;;;;48.55;43.70;;;8.60;99.90;;;;;;4990763;28;20037;-86
2023/04/20 04:20:17;;;;;;;54.63;49.63;;;8.60;99.90;;;;;;5008624;28;20092;-86
2023/04/20 04:22:43;;;;;;;67.18;60.42;;;8.70;97.40;;;;;;5008461;28;20061;-86
2023/04/20 04:25:10;;;;;;;66.72;61.30;;;8.60;1.00;;;;;;5008106;28;20127;-86
2023/04/20 04:27:36;;;;;;;56.00;50.78;;;8.70;99.90;;;;;;5008007;28;20065;-86
2023/04/20 04:30:03;;;;;;;72.70;66.30;;;8.80;99.90;;;;;;4992192;28;20497;-86
2023/04/20 04:32:29;;;;;;;79.80;72.55;;;8.80;20.20;;;;;;5006840;28;20509;-86
2023/04/20 04:34:55;;;;;;;71.25;64.47;;;9.00;1.00;;;;;;4994780;28;20049;-86
2023/04/20 04:37:20;;;;;;;55.30;50.35;;;8.80;99.90;;;;;;5011868;28;20050;-86
2023/04/20 04:39:46;;;;;;;100.15;91.47;;;8.90;17.40;;;;;;5012235;28;20049;-86
2023/04/20 04:42:11;;;;;;;67.07;61.67;;;8.90;1.00;;;;;;5011768;28;20417;-86
2023/04/20 04:44:38;;;;;;;88.45;81.78;;;8.90;99.90;;;;;;5012321;28;20129;-86
2023/04/20 04:47:04;;;;;;;72.72;67.22;;;9.00;99.90;;;;;;5002412;28;20035;-86
2023/04/20 04:49:31;;;;;;;95.03;88.30;;;8.90;1.00;;;;;;5009490;28;20045;-86
2023/04/20 04:51:56;;;;;;;121.05;112.82;;;8.90;1.00;;;;;;4995832;28;20111;-86
2023/04/20 04:54:22;;;;;;;96.65;89.85;;;8.90;1.00;;;;;;4995630;28;20489;-86
2023/04/20 04:56:47;;;;;;;95.30;88.15;;;9.30;99.90;;;;;;5009585;28;20410;-86
2023/04/20 04:59:13;;;;;;;78.70;72.82;;;8.90;99.90;;;;;;5011906;28;20042;-86
2023/04/20 05:01:39;;;;;;;129.90;119.70;;;8.80;99.90;;;;;;4994133;28;20038;-86
2023/04/20 05:04:04;;;;;;;98.75;91.72;;;10.20;99.90;;;;;;5011515;28;20497;-86
2023/04/20 05:06:30;;;;;;;99.32;92.75;;;8.80;99.90;;;;;;5011044;28;20084;-86
2023/04/20 05:08:55;;;;;;;86.47;79.72;;;8.70;94.30;;;;;;5011512;28;20497;-86
2023/04/20 05:11:21;;;;;;;100.32;92.88;;;8.80;54.90;;;;;;5011621;28;20520;-86
2023/04/20 05:13:47;;;;;;;110.45;102.65;;;8.80;17.90;;;;;;5011472;28;20054;-86
2023/04/20 05:16:13;;;;;;;114.32;105.85;;;8.80;1.00;;;;;;5010183;28;20042;-86
2023/04/20 05:18:38;;;;;;;116.38;108.57;;;8.80;1.00;;;;;;4994988;28;20080;-86
2023/04/20 05:21:04;;;;;;;111.22;102.97;;;8.70;1.00;;;;;;4995095;28;20034;-86
2023/04/20 05:23:29;;;;;;;93.30;87.05;;;8.80;1.00;;;;;;5011444;28;20528;-85
2023/04/20 05:25:55;;;;;;;125.18;115.78;;;8.70;1.00;;;;;;5010465;28;20081;-85
2023/04/20 05:28:21;;;;;;;123.15;113.35;;;8.80;1.00;;;;;;5011003;28;20041;-86
2023/04/20 05:30:46;;;;;;;93.45;86.50;;;8.80;17.20;;;;;;5010915;28;20143;-86
2023/04/20 05:33:12;;;;;;;92.63;85.07;;;8.90;51.50;;;;;;5010663;28;20038;-86
2023/04/20 05:35:39;;;;;;;98.38;91.53;;;8.90;77.00;;;;;;5010343;28;20092;-86
2023/04/20 05:38:05;;;;;;;107.57;99.47;;;9.00;93.50;;;;;;4978057;28;20046;-86
2023/04/20 05:40:33;;;;;;;82.03;75.97;;;9.10;99.90;;;;;;4994700;28;20321;-86
2023/04/20 05:42:59;;;;;;;105.07;96.32;;;10.10;99.90;;;;;;5010650;28;20072;-86
2023/04/20 05:45:25;;;;;;;109.55;101.75;;;9.10;99.90;;;;;;5009506;28;20474;-86
2023/04/20 05:47:52;;;;;;;101.13;93.60;;;9.20;99.90;;;;;;4992789;28;20121;-86
2023/04/20 05:50:18;;;;;;;113.13;103.97;;;9.10;99.90;;;;;;4994561;28;20041;-86
2023/04/20 05:52:44;;;;;;;103.25;94.43;;;9.20;99.90;;;;;;5011031;28;20041;-86
2023/04/20 05:55:09;;;;;;;103.50;95.45;;;9.10;99.90;;;;;;5007335;28;20399;-86
2023/04/20 05:57:41;;;;;;;111.40;103.30;;;9.10;99.90;;;;;;5006298;28;20113;-86
2023/04/20 06:00:11;;;;;;;101.43;93.93;;;9.20;99.90;;;;;;5010617;28;20048;-86
2023/04/20 06:02:37;;;;;;;111.05;101.47;;;9.20;99.90;;;;;;4980432;28;20046;-86
2023/04/20 06:05:02;;;;;;;103.82;96.18;;;9.30;99.90;;;;;;4982812;28;20044;-86
2023/04/20 06:07:28;;;;;;;112.22;102.07;;;9.30;99.90;;;;;;5008347;28;20409;-87
2023/04/20 06:09:53;;;;;;;115.55;107.10;;;9.30;99.90;;;;;;4996921;28;20386;-88
2023/04/20 06:12:19;;;;;;;99.55;92.38;;;9.40;99.90;;;;;;5004184;28;20046;-88
2023/04/20 06:14:45;;;;;;;101.43;93.97;;;9.40;99.90;;;;;;5005368;28;20041;-88
2023/04/20 06:17:10;;;;;;;100.45;92.68;;;10.20;99.90;;;;;;5005671;28;20115;-88
2023/04/20 06:19:36;;;;;;;107.15;98.47;;;9.50;99.90;;;;;;5009671;28;20764;-87
2023/04/20 06:22:06;;;;;;;103.75;95.68;;;9.50;68.00;;;;;;5010054;28;20037;-87
2023/04/20 06:24:32;;;;;;;111.43;103.78;;;10.30;11.90;;;;;;4993963;28;20378;-87
2023/04/20 06:26:58;;;;;;;113.57;104.70;;;9.50;1.00;;;;;;4997265;28;20384;-88
2023/04/20 06:29:23;;;;;;;90.72;83.90;;;9.60;1.00;;;;;;5002863;28;20042;-88
2023/04/20 06:31:49;;;;;;;100.82;93.45;;;9.50;1.00;;;;;;4992444;28;20403;-88
2023/04/20 06:34:15;;;;;;;123.30;114.00;;;10.70;1.00;;;;;;4987206;28;20490;-89
2023/04/20 06:36:42;;;;;;;88.15;81.90;;;9.50;1.00;;;;;;4993551;28;20042;-88
2023/04/20 06:39:08;;;;;;;85.07;78.35;;;9.50;1.00;;;;;;5009514;28;20062;-88
2023/04/20 06:41:33;;;;;;;110.15;101.70;;;9.60;1.00;;;;;;5009284;28;20498;-89
2023/04/20 06:43:59;;;;;;;105.57;97.78;;;10.70;1.00;;;;;;4990391;28;20582;-91
2023/04/20 06:46:25;;;;;;;98.82;91.32;;;10.50;99.90;;;;;;5008467;28;20033;-89
2023/04/20 06:48:50;;;;;;;129.35;119.68;;;9.60;99.90;;;;;;5009748;28;20046;-90
2023/04/20 06:51:16;;;;;;;107.30;99.70;;;9.60;99.90;;;;;;5009296;28;20049;-89
2023/04/20 06:53:42;;;;;;;117.35;109.30;;;9.70;99.90;;;;;;4986262;28;20070;-89
2023/04/20 06:56:07;;;;;;;110.57;102.15;;;9.80;99.90;;;;;;4989197;28;20054;-87
2023/04/20 06:58:33;;;;;;;75.00;69.80;;;9.90;99.90;;;;;;4997339;28;20084;-91
2023/04/20 07:00:58;;;;;;;116.20;108.07;;;10.00;99.90;;;;;;4998340;28;20565;-90
2023/04/20 07:03:24;;;;;;;101.93;94.43;;;11.80;99.90;;;;;;5001480;28;20068;-87
2023/04/20 07:05:49;;;;;;;81.28;75.55;;;10.10;99.90;;;;;;4986876;28;20111;-92
2023/04/20 07:08:16;;;;;;;102.35;95.53;;;11.70;99.90;;;;;;4984716;28;20044;-90
2023/04/20 07:10:41;;;;;;;107.88;100.03;;;10.20;99.90;;;;;;5002228;28;20084;-90
2023/04/20 07:13:07;;;;;;;89.43;82.90;;;10.20;99.90;;;;;;5006124;28;20080;-88
2023/04/20 07:15:33;;;;;;;96.20;89.53;;;10.20;99.90;;;;;;4986615;28;20425;-90
2023/04/20 07:17:58;;;;;;;120.90;111.47;;;10.20;99.90;;;;;;4990180;28;20462;-90
2023/04/20 07:20:24;;;;;;;93.55;86.82;;;10.20;99.90;;;;;;5006036;28;20030;-90
2023/04/20 07:22:50;;;;;;;102.13;94.28;;;10.70;99.90;;;;;;5003354;28;20048;-90
2023/04/20 07:25:16;;;;;;;91.78;85.05;;;10.20;99.90;;;;;;4987720;28;20085;-90
2023/04/20 07:27:42;;;;;;;92.75;85.07;;;10.20;99.90;;;;;;4986472;28;20042;-89
2023/04/20 07:30:09;;;;;;;73.15;67.55;;;11.90;99.90;;;;;;4998488;28;20474;-89
2023/04/20 07:32:35;;;;;;;78.20;72.07;;;10.50;99.90;;;;;;4999354;28;20034;-89
2023/04/20 07:35:02;;;;;;;74.85;68.25;;;10.70;91.60;;;;;;5005014;28;20042;-89
2023/04/20 07:37:28;;;;;;;76.13;70.38;;;11.70;59.80;;;;;;4986094;28;20405;-90
2023/04/20 07:39:54;;;;;;;77.53;71.07;;;10.50;23.30;;;;;;4990699;28;20075;-90
2023/04/20 07:42:20;;;;;;;75.68;70.72;;;10.40;9.30;;;;;;5013618;28;20038;-90
2023/04/20 07:44:46;;;;;;;33.90;30.95;;;10.90;6.70;;;;;;4988797;28;20054;-90
2023/04/20 07:47:12;;;;;;;73.00;67.72;;;10.30;12.90;;;;;;5005462;28;20069;-89
2023/04/20 07:49:39;;;;;;;81.65;75.70;;;10.20;3.80;;;;;;4987672;28;20580;-87
2023/04/20 07:52:05;;;;;;;42.38;39.15;;;10.10;1.00;;;;;;5002746;28;20060;-86
2023/04/20 07:54:31;;;;;;;82.65;76.85;;;10.00;1.00;;;;;;4997258;28;20157;-87
2023/04/20 07:56:58;;;;;;;79.75;74.13;;;9.90;1.00;;;;;;4986950;28;20046;-86
2023/04/20 07:59:23;;;;;;;65.30;60.50;;;9.90;1.00;;;;;;4983790;28;20074;-87
2023/04/20 08:01:49;;;;;;;81.72;76.03;;;9.70;2.50;;;;;;4985581;28;20461;-87
2023/04/20 08:04:16;;;;;;;77.65;72.30;;;9.70;8.20;;;;;;4997436;28;20114;-87
2023/04/20 08:06:41;;;;;;;101.38;94.45;;;10.10;19.10;;;;;;5003275;28;20049;-85
2023/04/20 08:09:07;;;;;;;68.63;63.13;;;9.50;39.00;;;;;;4996191;28;20096;-87
2023/04/20 08:11:32;;;;;;;110.05;102.15;;;9.40;59.60;;;;;;5008369;28;20048;-86
2023/04/20 08:13:58;;;;;;;55.15;50.95;;;9.30;89.50;;;;;;4999142;28;20049;-86
2023/04/20 08:16:24;;;;;;;87.70;80.97;;;9.20;99.90;;;;;;5004309;28;20057;-86
2023/04/20 08:18:50;;;;;;;61.55;56.60;;;9.10;99.90;;;;;;5006819;28;20527;-86
2023/04/20 08:21:15;;;;;;;77.85;71.57;;;9.00;99.90;;;;;;5003526;28;20041;-86
2023/04/20 08:23:41;;;;;;;105.28;97.90;;;8.80;99.90;;;;;;5006132;28;20050;-87
2023/04/20 08:26:07;;;;;;;110.90;103.32;;;8.80;99.90;;;;;;5003465;28;20053;-87
2023/04/20 08:28:33;;;;;;;76.70;70.20;;;8.70;99.90;;;;;;5002952;28;20415;-86
2023/04/20 08:30:58;;;;;;;130.63;121.93;;;8.60;99.90;;;;;;4999080;28;20075;-85
2023/04/20 08:33:24;;;;;;;57.03;52.47;;;8.60;99.90;;;;;;5011203;28;20046;-86
2023/04/20 08:35:50;;;;;;;95.78;88.55;;;8.60;1.00;;;;;;5007758;28;20505;-86
2023/04/20 08:38:16;;;;;;;111.47;103.18;;;8.60;1.00;;;;;;5000397;28;20042;-85
2023/04/20 08:40:42;;;;;;;83.53;75.72;;;8.60;1.00;;;;;;4992741;28;20116;-84
2023/04/20 08:43:08;;;;;;;84.88;78.88;;;8.50;1.00;;;;;;5006100;28;20044;-85
2023/04/20 08:45:33;;;;;;;129.02;117.97;;;8.50;1.00;;;;;;5007085;28;20046;-85
2023/04/20 08:48:04;;;;;;;50.97;46.70;;;8.50;1.00;;;;;;5023000;28;20561;-85
2023/04/20 08:50:30;;;;;;;56.42;51.60;;;8.50;14.50;;;;;;4983071;28;20073;-85
2023/04/20 08:52:56;;;;;;;55.78;51.63;;;8.50;90.20;;;;;;5004542;28;20041;-84
2023/04/20 08:55:22;;;;;;;83.63;77.13;;;8.40;99.90;;;;;;5003524;28;20046;-85
2023/04/20 08:57:48;;;;;;;51.45;47.58;;;8.30;99.90;;;;;;5005076;28;20386;-84
2023/04/20 09:00:15;;;;;;;89.85;81.60;;;9.20;99.90;;;;;;5008277;28;20049;-84
2023/04/20 09:02:50;;;;;;;66.50;59.75;;;8.20;99.90;;;;;;5002561;28;20054;-84
2023/04/20 09:05:24;;;;;;;62.15;56.88;;;8.20;1.00;;;;;;4987841;28;20502;-85
2023/04/20 09:07:52;;;;;;;44.78;41.00;;;8.10;1.00;;;;;;5007526;28;20036;-85
2023/04/20 09:10:18;;;;;;;67.53;60.92;;;8.00;17.50;;;;;;5006257;28;20099;-85
2023/04/20 09:12:43;;;;;;;53.72;48.63;;;8.90;99.90;;;;;;5005391;28;20490;-85
2023/04/20 09:15:10;;;;;;;62.00;56.00;;;7.80;99.90;;;;;;4991176;28;20137;-86
2023/04/20 09:17:38;;;;;;;49.50;45.42;;;7.80;99.90;;;;;;5005833;28;20413;-86
2023/04/20 09:20:05;;;;;;;44.17;39.83;;;7.80;1.00;;;;;;4976741;28;20088;-86
2023/04/20 09:22:32;;;;;;;56.17;50.70;;;7.80;69.00;;;;;;4987839;28;20046;-85
2023/04/20 09:24:58;;;;;;;36.45;33.25;;;7.80;99.90;;;;;;5003129;28;20400;-86
2023/04/20 09:27:25;;;;;;;73.93;60.17;;;9.20;99.90;;;;;;4987657;28;20046;-85
2023/04/20 09:30:02;;;;;;;65.90;49.63;;;7.70;1.00;;;;;;5000185;28;20038;-84
2023/04/20 09:32:28;;;;;;;47.92;43.67;;;7.70;99.90;;;;;;5000553;28;20121;-84
2023/04/20 09:34:55;;;;;;;35.13;31.70;;;7.60;99.90;;;;;;5003518;28;20133;-85
2023/04/20 09:37:21;;;;;;;50.58;41.28;;;8.60;1.00;;;;;;4993306;28;20041;-84
2023/04/20 09:39:47;;;;;;;33.50;30.00;;;7.50;99.90;;;;;;4984427;28;20042;-85
2023/04/20 09:42:14;;;;;;;34.92;31.42;;;7.50;99.90;;;;;;5008258;28;20153;-85
2023/04/20 09:44:41;;;;;;;29.02;26.13;;;7.60;99.90;;;;;;4989185;28;20026;-85
2023/04/20 09:47:07;;;;;;;56.92;50.85;;;7.40;1.00;;;;;;5000114;28;20078;-85
2023/04/20 09:49:33;;;;;;;41.97;35.72;;;7.50;99.90;;;;;;4994136;28;20087;-86
2023/04/20 09:52:03;;;;;;;22.45;20.27;;;7.60;1.00;;;;;;4999504;28;20041;-86
2023/04/20 09:54:29;;;;;;;23.35;21.15;;;7.60;99.90;;;;;;5007844;28;20049;-86
2023/04/20 09:56:57;;;;;;;36.83;33.08;;;7.60;99.90;;;;;;5001476;28;20061;-85
2023/04/20 09:59:25;;;;;;;31.73;28.30;;;7.50;1.00;;;;;;4997824;28;20100;-85
2023/04/20 10:01:50;;;;;;;26.92;24.20;;;7.80;99.90;;;;;;4997901;28;20544;-85
2023/04/20 10:04:16;;;;;;;48.35;35.72;;;7.70;99.90;;;;;;5006060;28;20248;-85
2023/04/20 10:07:02;;;;;;;46.92;38.80;;;7.70;1.00;;;;;;5002314;28;20046;-84
2023/04/20 10:09:29;;;;;;;68.97;42.25;;;8.00;72.00;;;;;;5005529;28;20061;-85
2023/04/20 10:12:05;;;;;;;33.05;26.23;;;8.10;99.90;;;;;;5009360;28;20133;-85
2023/04/20 10:14:31;;;;;;;94.28;77.22;;;7.90;99.90;;;;;;5000713;28;20096;-84
2023/04/20 10:16:58;;;;;;;29.85;27.10;;;8.10;99.90;;;;;;4998667;28;20542;-85
2023/04/20 10:19:34;;;;;;;43.95;35.92;;;8.10;99.90;;;;;;5005041;28;20068;-84
2023/04/20 10:22:00;;;;;;;34.70;31.55;;;8.00;99.90;;;;;;4997911;28;20096;-85
2023/04/20 10:24:30;;;;;;;61.58;46.00;;;8.00;99.90;;;;;;4999561;28;20042;-85
2023/04/20 10:26:55;;;;;;;26.65;23.85;;;8.20;99.90;;;;;;5003213;28;20045;-86
2023/04/20 10:29:28;;;;;;;46.42;42.00;;;8.30;99.90;;;;;;4992139;28;20152;-85
2023/04/20 10:31:54;;;;;;;34.83;31.05;;;8.30;99.90;;;;;;4997851;28;20129;-85
2023/04/20 10:34:34;;;;;;;40.53;31.50;;;8.30;99.90;;;;;;4997419;28;20089;-85
2023/04/20 10:37:10;;;;;;;47.13;42.25;;;8.20;99.90;;;;;;4995816;28;20050;-85
2023/04/20 10:39:42;;;;;;;34.78;31.13;;;8.20;99.90;;;;;;5000770;28;20073;-85
2023/04/20 10:42:08;;;;;;;34.78;31.55;;;8.30;99.90;;;;;;5001337;28;20118;-86
2023/04/20 10:44:34;;;;;;;29.13;26.02;;;8.50;99.90;;;;;;5003685;28;20053;-85
2023/04/20 10:47:00;;;;;;;42.00;37.80;;;8.50;99.90;;;;;;4991336;28;20038;-85
2023/04/20 10:49:28;;;;;;;26.08;23.52;;;8.60;99.90;;;;;;4992068;28;20042;-85
2023/04/20 10:51:54;;;;;;;82.45;64.68;;;8.70;99.90;;;;;;4999056;28;20600;-86
2023/04/20 10:54:19;;;;;;;35.25;32.05;;;8.90;99.90;;;;;;4998756;28;20046;-86
2023/04/20 10:56:53;;;;;;;54.35;48.63;;;9.00;99.90;;;;;;5004374;28;20042;-86
2023/04/20 10:59:21;;;;;;;44.60;40.28;;;9.10;99.90;;;;;;5001994;28;20100;-86
2023/04/20 11:01:50;;;;;;;59.58;53.50;;;9.10;99.90;;;;;;4999796;28;20045;-86
2023/04/20 11:04:16;;;;;;;40.20;36.63;;;9.00;99.90;;;;;;4984822;28;20053;-86
2023/04/20 11:06:43;;;;;;;56.65;50.83;;;9.00;76.50;;;;;;4995406;28;20425;-86
2023/04/20 11:09:25;;;;;;;43.45;39.85;;;9.20;1.00;;;;;;5002622;28;20084;-87
2023/04/20 11:12:17;;;;;;;44.70;41.20;;;9.20;1.00;;;;;;5000054;28;20096;-84
2023/04/20 11:15:01;;;;;;;71.82;64.07;;;9.20;1.00;;;;;;4991907;28;20096;-85
2023/04/20 11:17:34;;;;;;;69.43;62.63;;;9.60;99.90;;;;;;4997223;28;20046;-84
2023/04/20 11:20:18;;;;;;;40.97;37.60;;;9.40;1.00;;;;;;4997835;28;20041;-84
2023/04/20 11:22:44;;;;;;;66.25;59.50;;;9.50;99.90;;;;;;4991296;28;20136;-83
2023/04/20 11:25:11;;;;;;;50.40;46.22;;;9.50;2.10;;;;;;4995869;28;20177;-85
2023/04/20 11:27:38;;;;;;;55.30;50.42;;;9.50;99.90;;;;;;5005870;28;20074;-83
2023/04/20 11:30:05;;;;;;;53.78;49.20;;;9.50;1.00;;;;;;5003792;28;20056;-83
2023/04/20 11:32:32;;;;;;;81.55;73.53;;;9.50;99.90;;;;;;4999386;28;20382;-83
2023/04/20 11:35:09;;;;;;;56.92;52.20;;;9.50;51.70;;;;;;4983672;28;20120;-83
2023/04/20 11:37:49;;;;;;;54.22;50.05;;;9.50;99.90;;;;;;5001021;28;20097;-83
2023/04/20 11:40:16;;;;;;;93.65;84.15;;;9.40;1.00;;;;;;5003669;28;20042;-83
2023/04/20 11:42:42;;;;;;;67.57;62.30;;;9.40;99.90;;;;;;5001417;28;20571;-82
2023/04/20 11:45:09;;;;;;;92.50;82.97;;;9.30;99.90;;;;;;5000744;28;20065;-82
2023/04/20 11:47:35;;;;;;;58.47;52.55;;;9.40;44.80;;;;;;4999254;28;20053;-83
2023/04/20 11:50:01;;;;;;;68.43;62.75;;;9.40;1.00;;;;;;4994589;28;20046;-83
2023/04/20 11:52:26;;;;;;;63.35;57.83;;;9.30;1.00;;;;;;4995478;28;20042;-83
2023/04/20 11:54:52;;;;;;;68.97;63.50;;;9.30;99.90;;;;;;5001594;28;20046;-83
2023/04/20 11:57:17;;;;;;;78.40;70.47;;;9.30;99.90;;;;;;5000755;28;20060;-84
2023/04/20 11:59:46;;;;;;;65.45;60.75;;;9.30;99.90;;;;;;4993558;28;20041;-83
2023/04/20 12:02:12;;;;;;;53.80;49.28;;;9.30;99.90;;;;;;4975137;28;20066;-83
2023/04/20 12:04:38;;;;;;;68.93;63.88;;;9.20;99.90;;;;;;4996335;28;20045;-83
2023/04/20 12:07:03;;;;;;;66.93;62.25;;;9.30;99.90;;;;;;4986052;28;20046;-82
2023/04/20 12:09:29;;;;;;;67.18;61.47;;;9.30;97.90;;;;;;4995031;28;20038;-84
2023/04/20 12:11:55;;;;;;;54.08;50.15;;;9.30;93.80;;;;;;4993336;28;20039;-84
2023/04/20 12:14:20;;;;;;;70.13;65.05;;;9.30;99.90;;;;;;4998457;28;20099;-84
2023/04/20 12:16:46;;;;;;;79.32;72.47;;;9.30;99.90;;;;;;4996434;28;20073;-85
2023/04/20 12:19:12;;;;;;;111.80;99.93;;;9.40;99.90;;;;;;5002605;28;20040;-84
2023/04/20 12:21:37;;;;;;;72.60;67.18;;;9.70;99.90;;;;;;4999505;28;20042;-85
2023/04/20 12:24:03;;;;;;;75.70;69.18;;;10.50;99.90;;;;;;4977124;28;20042;-85
2023/04/20 12:26:29;;;;;;;71.28;65.60;;;9.60;99.90;;;;;;4991095;28;20050;-84
2023/04/20 12:28:56;;;;;;;49.65;43.55;;;9.70;99.90;;;;;;4984294;28;20074;-85
2023/04/20 12:31:23;;;;;;;74.90;68.25;;;9.80;84.60;;;;;;4999533;28;20120;-84
2023/04/20 12:33:48;;;;;;;80.93;74.53;;;9.90;1.00;;;;;;4999342;28;20124;-83